sensor_id;sensor_type;location;lat;lon;timestamp;temperature;humidity
21199;DHT22;10757;51.038;3.712;2022-09-09T00:02:04;16.70;99.90
21199;DHT22;10757;51.038;3.712;2022-09-09T00:04:41;16.70;99.90
21199;DHT22;10757;51.038;3.712;2022-09-09T00:07:51;16.70;99.90
21199;DHT22;10757;51.038;3.712;2022-09-09T00:10:29;16.70;99.90
21199;DHT22;10757;51.038;3.712;2022-09-09T00:21:43;16.50;99.90
21199;DHT22;10757;51.038;3.712;2022-09-09T00:27:34;16.60;99.90
21199;DHT22;10757;51.038;3.712;2022-09-09T00:30:17;16.70;99.90
21199;DHT22;10757;51.038;3.712;2022-09-09T00:35:53;16.60;99.90
21199;DHT22;10757;51.038;3.712;2022-09-09T00:38:40;16.50;99.90
21199;DHT22;10757;51.038;3.712;2022-09-09T00:41:21;16.50;99.90
21199;DHT22;10757;51.038;3.712;2022-09-09T00:52:39;16.40;99.90
21199;DHT22;10757;51.038;3.712;2022-09-09T00:55:41;16.40;99.90
21199;DHT22;10757;51.038;3.712;2022-09-09T00:58:11;16.40;99.90
21199;DHT22;10757;51.038;3.712;2022-09-09T01:01:12;16.40;99.90
21199;DHT22;10757;51.038;3.712;2022-09-09T01:03:56;16.40;99.90
21199;DHT22;10757;51.038;3.712;2022-09-09T01:06:40;16.30;99.90
21199;DHT22;10757;51.038;3.712;2022-09-09T01:12:41;16.30;99.90
21199;DHT22;10757;51.038;3.712;2022-09-09T01:15:12;16.20;99.90
21199;DHT22;10757;51.038;3.712;2022-09-09T01:18:08;16.30;99.90
21199;DHT22;10757;51.038;3.712;2022-09-09T01:23:38;16.20;99.90
21199;DHT22;10757;51.038;3.712;2022-09-09T01:28:53;16.20;99.90
21199;DHT22;10757;51.038;3.712;2022-09-09T01:31:40;16.20;99.90
21199;DHT22;10757;51.038;3.712;2022-09-09T01:34:14;16.20;99.90
21199;DHT22;10757;51.038;3.712;2022-09-09T01:37:03;16.20;99.90
21199;DHT22;10757;51.038;3.712;2022-09-09T01:39:35;16.20;99.90
21199;DHT22;10757;51.038;3.712;2022-09-09T01:42:03;16.10;99.90
21199;DHT22;10757;51.038;3.712;2022-09-09T01:44:30;16.10;99.90
21199;DHT22;10757;51.038;3.712;2022-09-09T01:47:00;16.00;99.90
21199;DHT22;10757;51.038;3.712;2022-09-09T01:49:26;16.00;99.90
21199;DHT22;10757;51.038;3.712;2022-09-09T01:51:55;16.00;99.90
21199;DHT22;10757;51.038;3.712;2022-09-09T01:54:24;16.00;99.90
21199;DHT22;10757;51.038;3.712;2022-09-09T02:00:12;16.00;99.90
21199;DHT22;10757;51.038;3.712;2022-09-09T02:02:45;16.00;99.90
21199;DHT22;10757;51.038;3.712;2022-09-09T02:07:49;16.10;99.90
21199;DHT22;10757;51.038;3.712;2022-09-09T02:10:32;16.20;99.90
21199;DHT22;10757;51.038;3.712;2022-09-09T02:13:09;16.10;99.90
21199;DHT22;10757;51.038;3.712;2022-09-09T02:18:07;16.10;99.90
21199;DHT22;10757;51.038;3.712;2022-09-09T02:20:37;16.10;99.90
21199;DHT22;10757;51.038;3.712;2022-09-09T02:23:05;16.10;99.90
21199;DHT22;10757;51.038;3.712;2022-09-09T02:25:33;16.20;99.90
21199;DHT22;10757;51.038;3.712;2022-09-09T02:28:02;16.20;99.90
21199;DHT22;10757;51.038;3.712;2022-09-09T02:30:30;16.20;99.90
21199;DHT22;10757;51.038;3.712;2022-09-09T02:32:58;16.30;99.90
21199;DHT22;10757;51.038;3.712;2022-09-09T02:35:27;16.40;99.90
21199;DHT22;10757;51.038;3.712;2022-09-09T02:37:59;16.40;99.90
21199;DHT22;10757;51.038;3.712;2022-09-09T02:40:25;16.40;99.90
21199;DHT22;10757;51.038;3.712;2022-09-09T02:42:50;16.40;99.90
21199;DHT22;10757;51.038;3.712;2022-09-09T02:45:25;16.50;99.90
21199;DHT22;10757;51.038;3.712;2022-09-09T02:47:59;16.60;99.90
21199;DHT22;10757;51.038;3.712;2022-09-09T02:50:33;16.70;99.90
21199;DHT22;10757;51.038;3.712;2022-09-09T02:53:07;16.70;99.90
21199;DHT22;10757;51.038;3.712;2022-09-09T02:55:47;16.70;99.90
21199;DHT22;10757;51.038;3.712;2022-09-09T02:58:17;16.70;99.90
21199;DHT22;10757;51.038;3.712;2022-09-09T03:00:47;16.60;99.90
21199;DHT22;10757;51.038;3.712;2022-09-09T03:03:14;16.60;99.90
21199;DHT22;10757;51.038;3.712;2022-09-09T03:05:42;16.70;99.90
21199;DHT22;10757;51.038;3.712;2022-09-09T03:08:08;16.70;99.90
21199;DHT22;10757;51.038;3.712;2022-09-09T03:10:35;16.70;99.90
21199;DHT22;10757;51.038;3.712;2022-09-09T03:13:02;16.70;99.90
21199;DHT22;10757;51.038;3.712;2022-09-09T03:15:30;16.70;99.90
21199;DHT22;10757;51.038;3.712;2022-09-09T03:17:58;16.60;99.90
21199;DHT22;10757;51.038;3.712;2022-09-09T03:20:25;16.50;99.90
21199;DHT22;10757;51.038;3.712;2022-09-09T03:22:52;16.50;99.90
21199;DHT22;10757;51.038;3.712;2022-09-09T03:25:18;16.50;99.90
21199;DHT22;10757;51.038;3.712;2022-09-09T03:27:44;16.50;99.90
21199;DHT22;10757;51.038;3.712;2022-09-09T03:30:10;16.50;99.90
21199;DHT22;10757;51.038;3.712;2022-09-09T03:32:36;16.50;99.90
21199;DHT22;10757;51.038;3.712;2022-09-09T03:35:02;16.60;99.90
21199;DHT22;10757;51.038;3.712;2022-09-09T03:37:28;16.60;99.90
21199;DHT22;10757;51.038;3.712;2022-09-09T03:39:54;16.70;99.90
21199;DHT22;10757;51.038;3.712;2022-09-09T03:42:20;16.70;99.90
21199;DHT22;10757;51.038;3.712;2022-09-09T03:44:47;16.70;99.90
21199;DHT22;10757;51.038;3.712;2022-09-09T03:47:19;16.70;99.90
21199;DHT22;10757;51.038;3.712;2022-09-09T03:49:45;16.70;99.90
21199;DHT22;10757;51.038;3.712;2022-09-09T03:52:11;16.70;99.90
21199;DHT22;10757;51.038;3.712;2022-09-09T03:54:37;16.70;99.90
21199;DHT22;10757;51.038;3.712;2022-09-09T03:57:03;16.70;99.90
21199;DHT22;10757;51.038;3.712;2022-09-09T03:59:29;16.90;99.90
21199;DHT22;10757;51.038;3.712;2022-09-09T04:01:55;16.90;99.90
21199;DHT22;10757;51.038;3.712;2022-09-09T04:04:22;16.70;99.90
21199;DHT22;10757;51.038;3.712;2022-09-09T04:06:48;16.70;99.90
21199;DHT22;10757;51.038;3.712;2022-09-09T04:09:14;16.70;99.90
21199;DHT22;10757;51.038;3.712;2022-09-09T04:11:40;16.80;99.90
21199;DHT22;10757;51.038;3.712;2022-09-09T04:14:06;16.80;99.90
21199;DHT22;10757;51.038;3.712;2022-09-09T04:16:33;16.80;99.90
21199;DHT22;10757;51.038;3.712;2022-09-09T04:18:59;16.70;99.90
21199;DHT22;10757;51.038;3.712;2022-09-09T04:21:26;16.80;99.90
21199;DHT22;10757;51.038;3.712;2022-09-09T04:23:51;16.70;99.90
21199;DHT22;10757;51.038;3.712;2022-09-09T04:26:17;16.80;99.90
21199;DHT22;10757;51.038;3.712;2022-09-09T04:28:43;16.80;99.90
21199;DHT22;10757;51.038;3.712;2022-09-09T04:31:18;16.80;99.90
21199;DHT22;10757;51.038;3.712;2022-09-09T04:33:44;16.90;99.90
21199;DHT22;10757;51.038;3.712;2022-09-09T04:36:10;16.80;99.90
21199;DHT22;10757;51.038;3.712;2022-09-09T04:38:36;16.70;99.90
21199;DHT22;10757;51.038;3.712;2022-09-09T04:41:01;16.70;99.90
21199;DHT22;10757;51.038;3.712;2022-09-09T04:43:27;16.70;99.90
21199;DHT22;10757;51.038;3.712;2022-09-09T04:45:53;16.70;99.90
21199;DHT22;10757;51.038;3.712;2022-09-09T04:48:19;16.60;99.90
21199;DHT22;10757;51.038;3.712;2022-09-09T04:51:00;16.60;99.90
21199;DHT22;10757;51.038;3.712;2022-09-09T04:53:27;16.60;99.90
21199;DHT22;10757;51.038;3.712;2022-09-09T04:56:10;16.60;99.90
21199;DHT22;10757;51.038;3.712;2022-09-09T04:58:36;16.60;99.90
21199;DHT22;10757;51.038;3.712;2022-09-09T05:01:07;16.60;99.90
21199;DHT22;10757;51.038;3.712;2022-09-09T05:03:33;16.70;99.90
21199;DHT22;10757;51.038;3.712;2022-09-09T05:06:07;16.60;99.90
21199;DHT22;10757;51.038;3.712;2022-09-09T05:08:34;16.70;99.90
21199;DHT22;10757;51.038;3.712;2022-09-09T05:11:00;16.80;99.90
21199;DHT22;10757;51.038;3.712;2022-09-09T05:13:26;16.80;99.90
21199;DHT22;10757;51.038;3.712;2022-09-09T05:15:54;16.70;99.90
21199;DHT22;10757;51.038;3.712;2022-09-09T05:18:20;16.60;99.90
21199;DHT22;10757;51.038;3.712;2022-09-09T05:20:47;16.70;99.90
21199;DHT22;10757;51.038;3.712;2022-09-09T05:23:12;16.70;99.90
21199;DHT22;10757;51.038;3.712;2022-09-09T05:25:38;16.80;99.90
21199;DHT22;10757;51.038;3.712;2022-09-09T05:28:05;16.90;99.90
21199;DHT22;10757;51.038;3.712;2022-09-09T05:30:33;16.90;99.90
21199;DHT22;10757;51.038;3.712;2022-09-09T05:32:59;17.10;99.90
21199;DHT22;10757;51.038;3.712;2022-09-09T05:35:25;17.10;99.90
21199;DHT22;10757;51.038;3.712;2022-09-09T05:37:51;17.00;99.90
21199;DHT22;10757;51.038;3.712;2022-09-09T05:40:16;17.00;99.90
21199;DHT22;10757;51.038;3.712;2022-09-09T05:42:42;17.00;99.90
21199;DHT22;10757;51.038;3.712;2022-09-09T05:45:09;16.90;99.90
21199;DHT22;10757;51.038;3.712;2022-09-09T05:47:35;17.00;99.90
21199;DHT22;10757;51.038;3.712;2022-09-09T05:50:02;17.00;99.90
21199;DHT22;10757;51.038;3.712;2022-09-09T05:52:28;16.90;99.90
21199;DHT22;10757;51.038;3.712;2022-09-09T05:54:54;16.90;99.90
21199;DHT22;10757;51.038;3.712;2022-09-09T05:57:20;17.00;99.90
21199;DHT22;10757;51.038;3.712;2022-09-09T05:59:46;17.00;99.90
21199;DHT22;10757;51.038;3.712;2022-09-09T06:02:12;17.10;99.90
21199;DHT22;10757;51.038;3.712;2022-09-09T06:04:38;17.10;99.90
21199;DHT22;10757;51.038;3.712;2022-09-09T06:07:05;17.20;99.90
21199;DHT22;10757;51.038;3.712;2022-09-09T06:09:31;17.20;99.90
21199;DHT22;10757;51.038;3.712;2022-09-09T06:11:58;17.20;99.90
21199;DHT22;10757;51.038;3.712;2022-09-09T06:14:24;17.10;99.90
21199;DHT22;10757;51.038;3.712;2022-09-09T06:16:51;17.10;99.90
21199;DHT22;10757;51.038;3.712;2022-09-09T06:19:17;17.00;99.90
21199;DHT22;10757;51.038;3.712;2022-09-09T06:21:43;16.90;99.90
21199;DHT22;10757;51.038;3.712;2022-09-09T06:24:10;16.80;99.90
21199;DHT22;10757;51.038;3.712;2022-09-09T06:26:43;16.80;99.90
21199;DHT22;10757;51.038;3.712;2022-09-09T06:29:09;16.80;99.90
21199;DHT22;10757;51.038;3.712;2022-09-09T06:31:37;16.80;99.90
21199;DHT22;10757;51.038;3.712;2022-09-09T06:34:08;16.70;99.90
21199;DHT22;10757;51.038;3.712;2022-09-09T06:36:36;16.70;99.90
21199;DHT22;10757;51.038;3.712;2022-09-09T06:39:02;16.80;99.90
21199;DHT22;10757;51.038;3.712;2022-09-09T06:41:29;16.80;99.90
21199;DHT22;10757;51.038;3.712;2022-09-09T06:43:56;16.80;99.90
21199;DHT22;10757;51.038;3.712;2022-09-09T06:46:27;16.70;99.90
21199;DHT22;10757;51.038;3.712;2022-09-09T06:48:54;16.80;99.90
21199;DHT22;10757;51.038;3.712;2022-09-09T06:51:22;16.80;99.90
21199;DHT22;10757;51.038;3.712;2022-09-09T06:53:52;16.90;99.90
21199;DHT22;10757;51.038;3.712;2022-09-09T06:56:24;17.10;99.90
21199;DHT22;10757;51.038;3.712;2022-09-09T06:58:51;17.10;99.90
21199;DHT22;10757;51.038;3.712;2022-09-09T07:01:20;17.20;99.90
21199;DHT22;10757;51.038;3.712;2022-09-09T07:03:48;17.30;99.90
21199;DHT22;10757;51.038;3.712;2022-09-09T07:06:23;17.50;99.90
21199;DHT22;10757;51.038;3.712;2022-09-09T07:08:54;17.60;99.90
21199;DHT22;10757;51.038;3.712;2022-09-09T07:11:22;17.80;99.90
21199;DHT22;10757;51.038;3.712;2022-09-09T07:13:48;17.80;99.90
21199;DHT22;10757;51.038;3.712;2022-09-09T07:16:19;17.80;99.90
21199;DHT22;10757;51.038;3.712;2022-09-09T07:18:47;18.00;99.90
21199;DHT22;10757;51.038;3.712;2022-09-09T07:21:14;18.00;99.90
21199;DHT22;10757;51.038;3.712;2022-09-09T07:23:40;18.00;99.90
21199;DHT22;10757;51.038;3.712;2022-09-09T07:26:11;18.00;99.90
21199;DHT22;10757;51.038;3.712;2022-09-09T07:28:40;18.00;99.90
21199;DHT22;10757;51.038;3.712;2022-09-09T07:31:14;18.00;99.90
21199;DHT22;10757;51.038;3.712;2022-09-09T07:33:40;18.00;99.90
21199;DHT22;10757;51.038;3.712;2022-09-09T07:36:18;18.30;99.90
21199;DHT22;10757;51.038;3.712;2022-09-09T07:41:42;18.70;99.90
21199;DHT22;10757;51.038;3.712;2022-09-09T07:44:13;18.70;99.90
21199;DHT22;10757;51.038;3.712;2022-09-09T07:46:41;18.60;99.90
21199;DHT22;10757;51.038;3.712;2022-09-09T07:49:09;18.50;99.90
21199;DHT22;10757;51.038;3.712;2022-09-09T07:51:44;18.60;99.90
21199;DHT22;10757;51.038;3.712;2022-09-09T07:54:13;18.50;99.90
21199;DHT22;10757;51.038;3.712;2022-09-09T07:56:47;18.40;99.90
21199;DHT22;10757;51.038;3.712;2022-09-09T07:59:22;18.30;99.90
21199;DHT22;10757;51.038;3.712;2022-09-09T08:01:55;18.20;99.90
21199;DHT22;10757;51.038;3.712;2022-09-09T08:04:22;18.20;99.90
21199;DHT22;10757;51.038;3.712;2022-09-09T08:06:53;18.00;99.90
21199;DHT22;10757;51.038;3.712;2022-09-09T08:09:20;17.90;99.90
21199;DHT22;10757;51.038;3.712;2022-09-09T08:11:46;17.80;99.90
21199;DHT22;10757;51.038;3.712;2022-09-09T08:14:13;17.90;99.90
21199;DHT22;10757;51.038;3.712;2022-09-09T08:16:42;17.70;99.90
21199;DHT22;10757;51.038;3.712;2022-09-09T08:19:08;17.80;99.90
21199;DHT22;10757;51.038;3.712;2022-09-09T08:21:45;17.70;99.90
21199;DHT22;10757;51.038;3.712;2022-09-09T08:24:11;17.70;99.90
21199;DHT22;10757;51.038;3.712;2022-09-09T08:26:40;17.70;99.90
21199;DHT22;10757;51.038;3.712;2022-09-09T08:29:08;17.60;99.90
21199;DHT22;10757;51.038;3.712;2022-09-09T08:31:55;17.60;99.90
21199;DHT22;10757;51.038;3.712;2022-09-09T08:34:23;17.50;99.90
21199;DHT22;10757;51.038;3.712;2022-09-09T08:36:51;17.70;99.90
21199;DHT22;10757;51.038;3.712;2022-09-09T08:39:19;17.70;99.90
21199;DHT22;10757;51.038;3.712;2022-09-09T08:50:21;17.90;99.90
21199;DHT22;10757;51.038;3.712;2022-09-09T08:56:01;17.90;99.90
21199;DHT22;10757;51.038;3.712;2022-09-09T08:58:33;18.10;99.90
21199;DHT22;10757;51.038;3.712;2022-09-09T09:04:10;18.20;99.90
21199;DHT22;10757;51.038;3.712;2022-09-09T09:10:14;18.20;99.90
21199;DHT22;10757;51.038;3.712;2022-09-09T09:12:48;18.10;99.90
21199;DHT22;10757;51.038;3.712;2022-09-09T09:15:21;18.20;99.90
21199;DHT22;10757;51.038;3.712;2022-09-09T09:17:51;18.10;99.90
21199;DHT22;10757;51.038;3.712;2022-09-09T09:20:29;18.10;99.90
21199;DHT22;10757;51.038;3.712;2022-09-09T09:23:16;18.20;99.90
21199;DHT22;10757;51.038;3.712;2022-09-09T09:25:49;18.30;99.90
21199;DHT22;10757;51.038;3.712;2022-09-09T09:28:21;18.50;99.90
21199;DHT22;10757;51.038;3.712;2022-09-09T09:31:06;18.80;99.90
21199;DHT22;10757;51.038;3.712;2022-09-09T09:36:07;19.20;99.90
21199;DHT22;10757;51.038;3.712;2022-09-09T09:38:38;19.60;99.90
21199;DHT22;10757;51.038;3.712;2022-09-09T09:41:05;19.70;99.90
21199;DHT22;10757;51.038;3.712;2022-09-09T09:43:39;19.50;99.90
21199;DHT22;10757;51.038;3.712;2022-09-09T09:46:22;19.60;99.90
21199;DHT22;10757;51.038;3.712;2022-09-09T09:49:09;19.60;99.90
21199;DHT22;10757;51.038;3.712;2022-09-09T09:51:37;19.30;99.90
21199;DHT22;10757;51.038;3.712;2022-09-09T09:54:27;19.50;99.90
21199;DHT22;10757;51.038;3.712;2022-09-09T09:56:54;19.50;99.90
21199;DHT22;10757;51.038;3.712;2022-09-09T09:59:34;19.50;99.90
21199;DHT22;10757;51.038;3.712;2022-09-09T10:02:38;19.50;99.90
21199;DHT22;10757;51.038;3.712;2022-09-09T10:07:39;19.60;99.90
21199;DHT22;10757;51.038;3.712;2022-09-09T10:10:07;19.60;99.90
21199;DHT22;10757;51.038;3.712;2022-09-09T10:13:11;19.50;99.90
21199;DHT22;10757;51.038;3.712;2022-09-09T10:15:56;19.60;99.90
21199;DHT22;10757;51.038;3.712;2022-09-09T10:21:36;19.80;99.90
21199;DHT22;10757;51.038;3.712;2022-09-09T10:27:11;20.20;99.90
21199;DHT22;10757;51.038;3.712;2022-09-09T10:32:33;20.30;99.90
21199;DHT22;10757;51.038;3.712;2022-09-09T10:51:26;20.50;99.90
21199;DHT22;10757;51.038;3.712;2022-09-09T10:56:51;21.30;99.90
21199;DHT22;10757;51.038;3.712;2022-09-09T10:59:26;21.10;99.90
21199;DHT22;10757;51.038;3.712;2022-09-09T11:04:41;21.10;99.90
21199;DHT22;10757;51.038;3.712;2022-09-09T11:07:10;21.00;99.90
21199;DHT22;10757;51.038;3.712;2022-09-09T11:09:41;21.20;99.90
21199;DHT22;10757;51.038;3.712;2022-09-09T11:12:15;21.40;99.90
21199;DHT22;10757;51.038;3.712;2022-09-09T11:18:13;21.60;99.90
21199;DHT22;10757;51.038;3.712;2022-09-09T11:20:40;21.60;99.90
21199;DHT22;10757;51.038;3.712;2022-09-09T11:23:40;22.10;99.90
21199;DHT22;10757;51.038;3.712;2022-09-09T11:26:07;22.50;99.90
21199;DHT22;10757;51.038;3.712;2022-09-09T11:29:03;22.50;99.90
21199;DHT22;10757;51.038;3.712;2022-09-09T11:35:29;22.70;99.90
21199;DHT22;10757;51.038;3.712;2022-09-09T11:40:37;22.40;99.90
21199;DHT22;10757;51.038;3.712;2022-09-09T11:43:15;22.30;99.90
21199;DHT22;10757;51.038;3.712;2022-09-09T11:45:51;22.60;99.90
21199;DHT22;10757;51.038;3.712;2022-09-09T11:51:07;22.70;99.90
21199;DHT22;10757;51.038;3.712;2022-09-09T11:53:35;22.50;99.90
21199;DHT22;10757;51.038;3.712;2022-09-09T11:56:07;22.40;99.90
21199;DHT22;10757;51.038;3.712;2022-09-09T11:58:40;22.20;99.90
21199;DHT22;10757;51.038;3.712;2022-09-09T12:01:35;22.00;99.90
21199;DHT22;10757;51.038;3.712;2022-09-09T12:04:09;22.10;99.90
21199;DHT22;10757;51.038;3.712;2022-09-09T12:06:50;22.50;99.90
21199;DHT22;10757;51.038;3.712;2022-09-09T12:11:52;22.50;99.90
21199;DHT22;10757;51.038;3.712;2022-09-09T12:14:35;22.20;99.90
21199;DHT22;10757;51.038;3.712;2022-09-09T12:17:24;22.30;99.90
21199;DHT22;10757;51.038;3.712;2022-09-09T12:25:20;21.70;99.90
21199;DHT22;10757;51.038;3.712;2022-09-09T12:30:54;21.70;99.90
21199;DHT22;10757;51.038;3.712;2022-09-09T12:33:22;21.80;99.90
21199;DHT22;10757;51.038;3.712;2022-09-09T12:35:54;22.10;99.90
21199;DHT22;10757;51.038;3.712;2022-09-09T12:38:36;22.10;99.90
21199;DHT22;10757;51.038;3.712;2022-09-09T12:41:03;22.10;99.90
21199;DHT22;10757;51.038;3.712;2022-09-09T12:43:29;22.20;99.90
21199;DHT22;10757;51.038;3.712;2022-09-09T12:46:08;22.50;99.90
21199;DHT22;10757;51.038;3.712;2022-09-09T12:48:40;22.40;99.90
21199;DHT22;10757;51.038;3.712;2022-09-09T12:51:29;22.50;99.90
21199;DHT22;10757;51.038;3.712;2022-09-09T12:53:56;22.40;99.90
21199;DHT22;10757;51.038;3.712;2022-09-09T12:56:37;22.40;99.90
21199;DHT22;10757;51.038;3.712;2022-09-09T12:59:04;22.60;99.90
21199;DHT22;10757;51.038;3.712;2022-09-09T13:01:32;22.20;99.90
21199;DHT22;10757;51.038;3.712;2022-09-09T13:04:02;21.90;99.90
21199;DHT22;10757;51.038;3.712;2022-09-09T13:06:32;21.90;99.90
21199;DHT22;10757;51.038;3.712;2022-09-09T13:09:02;21.80;99.90
21199;DHT22;10757;51.038;3.712;2022-09-09T13:11:36;21.90;99.90
21199;DHT22;10757;51.038;3.712;2022-09-09T13:14:05;22.00;99.90
21199;DHT22;10757;51.038;3.712;2022-09-09T13:16:35;21.90;99.90
21199;DHT22;10757;51.038;3.712;2022-09-09T13:19:07;22.00;99.90
21199;DHT22;10757;51.038;3.712;2022-09-09T13:21:36;22.10;99.90
21199;DHT22;10757;51.038;3.712;2022-09-09T13:24:05;22.20;99.90
21199;DHT22;10757;51.038;3.712;2022-09-09T13:26:33;22.50;99.90
21199;DHT22;10757;51.038;3.712;2022-09-09T13:29:18;22.80;99.90
21199;DHT22;10757;51.038;3.712;2022-09-09T13:31:45;22.70;99.90
21199;DHT22;10757;51.038;3.712;2022-09-09T13:34:25;22.90;99.90
21199;DHT22;10757;51.038;3.712;2022-09-09T13:37:37;23.30;99.90
21199;DHT22;10757;51.038;3.712;2022-09-09T13:39:51;23.70;99.90
21199;DHT22;10757;51.038;3.712;2022-09-09T13:42:30;23.80;99.90
21199;DHT22;10757;51.038;3.712;2022-09-09T13:44:58;23.90;99.90
21199;DHT22;10757;51.038;3.712;2022-09-09T13:47:35;23.90;99.90
21199;DHT22;10757;51.038;3.712;2022-09-09T13:50:21;23.50;99.90
21199;DHT22;10757;51.038;3.712;2022-09-09T13:52:48;23.30;99.90
21199;DHT22;10757;51.038;3.712;2022-09-09T13:55:15;23.20;99.90
21199;DHT22;10757;51.038;3.712;2022-09-09T13:57:51;23.00;99.90
21199;DHT22;10757;51.038;3.712;2022-09-09T14:00:17;22.70;99.90
21199;DHT22;10757;51.038;3.712;2022-09-09T14:02:43;22.90;99.90
21199;DHT22;10757;51.038;3.712;2022-09-09T14:05:10;22.70;99.90
21199;DHT22;10757;51.038;3.712;2022-09-09T14:07:37;22.70;99.90
21199;DHT22;10757;51.038;3.712;2022-09-09T14:10:04;22.70;99.90
21199;DHT22;10757;51.038;3.712;2022-09-09T14:12:30;22.60;99.90
21199;DHT22;10757;51.038;3.712;2022-09-09T14:14:56;22.50;99.90
21199;DHT22;10757;51.038;3.712;2022-09-09T14:17:22;22.30;99.90
21199;DHT22;10757;51.038;3.712;2022-09-09T14:19:48;22.40;99.90
21199;DHT22;10757;51.038;3.712;2022-09-09T14:22:14;22.20;99.90
21199;DHT22;10757;51.038;3.712;2022-09-09T14:24:40;22.20;99.90
21199;DHT22;10757;51.038;3.712;2022-09-09T14:27:06;22.50;99.90
21199;DHT22;10757;51.038;3.712;2022-09-09T14:29:32;22.50;99.90
21199;DHT22;10757;51.038;3.712;2022-09-09T14:31:59;22.60;99.90
21199;DHT22;10757;51.038;3.712;2022-09-09T14:34:26;22.70;99.90
21199;DHT22;10757;51.038;3.712;2022-09-09T14:36:52;22.90;99.90
21199;DHT22;10757;51.038;3.712;2022-09-09T14:39:18;22.90;99.90
21199;DHT22;10757;51.038;3.712;2022-09-09T14:41:43;23.20;99.90
21199;DHT22;10757;51.038;3.712;2022-09-09T14:44:10;23.70;99.90
21199;DHT22;10757;51.038;3.712;2022-09-09T14:46:41;23.70;99.90
21199;DHT22;10757;51.038;3.712;2022-09-09T14:49:09;23.50;99.90
21199;DHT22;10757;51.038;3.712;2022-09-09T14:51:38;23.30;99.90
21199;DHT22;10757;51.038;3.712;2022-09-09T14:54:04;23.20;99.90
21199;DHT22;10757;51.038;3.712;2022-09-09T14:56:32;22.90;99.90
21199;DHT22;10757;51.038;3.712;2022-09-09T14:59:01;22.30;99.90
21199;DHT22;10757;51.038;3.712;2022-09-09T15:01:28;22.00;99.90
21199;DHT22;10757;51.038;3.712;2022-09-09T15:03:58;21.80;99.90
21199;DHT22;10757;51.038;3.712;2022-09-09T15:06:26;21.90;99.90
21199;DHT22;10757;51.038;3.712;2022-09-09T15:08:54;22.00;99.90
21199;DHT22;10757;51.038;3.712;2022-09-09T15:11:20;21.80;99.90
21199;DHT22;10757;51.038;3.712;2022-09-09T15:13:51;22.10;99.90
21199;DHT22;10757;51.038;3.712;2022-09-09T15:16:23;22.10;99.90
21199;DHT22;10757;51.038;3.712;2022-09-09T15:18:51;22.20;99.90
21199;DHT22;10757;51.038;3.712;2022-09-09T15:21:20;22.50;99.90
21199;DHT22;10757;51.038;3.712;2022-09-09T15:23:51;22.70;99.90
21199;DHT22;10757;51.038;3.712;2022-09-09T15:26:19;22.60;99.90
21199;DHT22;10757;51.038;3.712;2022-09-09T15:28:46;22.90;99.90
21199;DHT22;10757;51.038;3.712;2022-09-09T15:31:23;22.90;99.90
21199;DHT22;10757;51.038;3.712;2022-09-09T15:33:53;22.90;99.90
21199;DHT22;10757;51.038;3.712;2022-09-09T15:36:35;22.70;99.90
21199;DHT22;10757;51.038;3.712;2022-09-09T15:39:05;22.70;99.90
21199;DHT22;10757;51.038;3.712;2022-09-09T15:41:36;22.70;99.90
21199;DHT22;10757;51.038;3.712;2022-09-09T15:44:04;22.60;99.90
21199;DHT22;10757;51.038;3.712;2022-09-09T15:49:13;22.30;99.90
21199;DHT22;10757;51.038;3.712;2022-09-09T15:51:41;22.30;99.90
21199;DHT22;10757;51.038;3.712;2022-09-09T15:54:09;22.10;99.90
21199;DHT22;10757;51.038;3.712;2022-09-09T15:56:35;21.90;99.90
21199;DHT22;10757;51.038;3.712;2022-09-09T15:59:02;22.00;99.90
21199;DHT22;10757;51.038;3.712;2022-09-09T16:01:31;22.10;99.90
21199;DHT22;10757;51.038;3.712;2022-09-09T16:03:58;22.20;99.90
21199;DHT22;10757;51.038;3.712;2022-09-09T16:06:27;22.30;99.90
21199;DHT22;10757;51.038;3.712;2022-09-09T16:08:55;22.20;99.90
21199;DHT22;10757;51.038;3.712;2022-09-09T16:11:26;22.20;99.90
21199;DHT22;10757;51.038;3.712;2022-09-09T16:13:53;22.20;99.90
21199;DHT22;10757;51.038;3.712;2022-09-09T16:16:22;22.40;99.90
21199;DHT22;10757;51.038;3.712;2022-09-09T16:18:53;22.60;99.90
21199;DHT22;10757;51.038;3.712;2022-09-09T16:21:27;22.60;99.90
21199;DHT22;10757;51.038;3.712;2022-09-09T16:23:58;22.60;99.90
21199;DHT22;10757;51.038;3.712;2022-09-09T16:26:29;22.50;99.90
21199;DHT22;10757;51.038;3.712;2022-09-09T16:28:56;22.50;99.90
21199;DHT22;10757;51.038;3.712;2022-09-09T16:31:27;22.50;99.90
21199;DHT22;10757;51.038;3.712;2022-09-09T16:33:53;22.20;99.90
21199;DHT22;10757;51.038;3.712;2022-09-09T16:36:27;22.10;99.90
21199;DHT22;10757;51.038;3.712;2022-09-09T16:38:58;21.90;99.90
21199;DHT22;10757;51.038;3.712;2022-09-09T16:41:25;21.90;99.90
21199;DHT22;10757;51.038;3.712;2022-09-09T16:44:00;21.90;99.90
21199;DHT22;10757;51.038;3.712;2022-09-09T16:46:29;22.00;99.90
21199;DHT22;10757;51.038;3.712;2022-09-09T16:48:57;21.80;99.90
21199;DHT22;10757;51.038;3.712;2022-09-09T16:51:28;22.10;99.90
21199;DHT22;10757;51.038;3.712;2022-09-09T16:53:55;22.20;99.90
21199;DHT22;10757;51.038;3.712;2022-09-09T16:56:24;22.10;99.90
21199;DHT22;10757;51.038;3.712;2022-09-09T16:58:58;22.10;99.90
21199;DHT22;10757;51.038;3.712;2022-09-09T17:01:25;22.10;99.90
21199;DHT22;10757;51.038;3.712;2022-09-09T17:03:55;21.90;99.90
21199;DHT22;10757;51.038;3.712;2022-09-09T17:06:21;21.60;99.90
21199;DHT22;10757;51.038;3.712;2022-09-09T17:08:53;21.40;99.90
21199;DHT22;10757;51.038;3.712;2022-09-09T17:11:19;21.30;99.90
21199;DHT22;10757;51.038;3.712;2022-09-09T17:13:46;21.30;99.90
21199;DHT22;10757;51.038;3.712;2022-09-09T17:16:17;21.20;99.90
21199;DHT22;10757;51.038;3.712;2022-09-09T17:18:44;20.70;99.90
21199;DHT22;10757;51.038;3.712;2022-09-09T17:21:17;19.90;99.90
21199;DHT22;10757;51.038;3.712;2022-09-09T17:23:46;19.40;99.90
21199;DHT22;10757;51.038;3.712;2022-09-09T17:26:14;19.00;99.90
21199;DHT22;10757;51.038;3.712;2022-09-09T17:28:42;18.90;99.90
21199;DHT22;10757;51.038;3.712;2022-09-09T17:31:10;18.90;99.90
21199;DHT22;10757;51.038;3.712;2022-09-09T17:33:40;18.90;99.90
21199;DHT22;10757;51.038;3.712;2022-09-09T17:36:15;19.00;99.90
21199;DHT22;10757;51.038;3.712;2022-09-09T17:38:42;19.10;99.90
21199;DHT22;10757;51.038;3.712;2022-09-09T17:41:20;19.00;99.90
21199;DHT22;10757;51.038;3.712;2022-09-09T17:43:47;19.00;99.90
21199;DHT22;10757;51.038;3.712;2022-09-09T17:46:20;19.00;99.90
21199;DHT22;10757;51.038;3.712;2022-09-09T17:48:49;19.10;99.90
21199;DHT22;10757;51.038;3.712;2022-09-09T17:51:20;19.10;99.90
21199;DHT22;10757;51.038;3.712;2022-09-09T17:53:50;19.10;99.90
21199;DHT22;10757;51.038;3.712;2022-09-09T17:56:19;19.20;99.90
21199;DHT22;10757;51.038;3.712;2022-09-09T17:58:47;19.00;99.90